Time;durP1;ratioP1;P1;durP2;ratioP2;P2;SDS_P1;SDS_P2;PMS_P1;PMS_P2;Temp;Humidity;BMP_temperature;BMP_pressure;BME280_temperature;BME280_humidity;BME280_pressure;Samples;Min_cycle;Max_cycle;Signal;HPM_P1;HPM_P2
2021/08/04 00:01:13;;;;;;;7.85;6.05;;;;;;;;;;5095598;28;20131;-46
2021/08/04 00:03:39;;;;;;;10.38;7.55;;;;;;;;;;5095451;28;20034;-45
2021/08/04 00:06:05;;;;;;;12.80;8.18;;;;;;;;;;5095303;28;20016;-48
2021/08/04 00:08:31;;;;;;;10.98;6.90;;;;;;;;;;5095250;28;20024;-48
2021/08/04 00:10:57;;;;;;;10.38;6.22;;;;;;;;;;5095403;28;20084;-46
2021/08/04 00:13:23;;;;;;;11.27;6.95;;;;;;;;;;5095223;28;20036;-49
2021/08/04 00:15:49;;;;;;;9.82;6.70;;;;;;;;;;5094867;28;20039;-49
2021/08/04 00:18:16;;;;;;;7.15;5.00;;;;;;;;;;5077113;28;20032;-49
2021/08/04 00:20:42;;;;;;;5.68;4.65;;;;;;;;;;5095216;28;20387;-47
2021/08/04 00:23:08;;;;;;;6.45;5.18;;;;;;;;;;5095118;28;20479;-49
2021/08/04 00:25:34;;;;;;;7.95;5.30;;;;;;;;;;5095019;28;20108;-50
2021/08/04 00:28:01;;;;;;;8.40;5.82;;;;;;;;;;5094951;28;20469;-51
2021/08/04 00:30:27;;;;;;;8.20;5.80;;;;;;;;;;5094914;28;20024;-48
2021/08/04 00:32:54;;;;;;;8.25;5.63;;;;;;;;;;5094787;28;20081;-48
2021/08/04 00:35:20;;;;;;;6.43;4.65;;;;;;;;;;5094875;28;20051;-47
2021/08/04 00:37:46;;;;;;;8.32;5.03;;;;;;;;;;5094524;28;20053;-47
2021/08/04 00:40:12;;;;;;;5.50;4.68;;;;;;;;;;5094722;28;20024;-47
2021/08/04 00:42:38;;;;;;;4.72;4.30;;;;;;;;;;5094706;28;20028;-46
2021/08/04 00:45:05;;;;;;;5.50;4.63;;;;;;;;;;5076537;28;20024;-47
2021/08/04 00:47:31;;;;;;;7.10;5.25;;;;;;;;;;5076565;28;20028;-46
2021/08/04 00:49:57;;;;;;;5.00;4.50;;;;;;;;;;5094578;28;20020;-46
2021/08/04 00:52:23;;;;;;;6.47;4.65;;;;;;;;;;5076223;28;20028;-48
2021/08/04 00:54:49;;;;;;;6.78;4.95;;;;;;;;;;5094460;28;20028;-48
2021/08/04 00:57:15;;;;;;;4.40;4.00;;;;;;;;;;5094344;28;20036;-47
2021/08/04 00:59:41;;;;;;;6.07;4.55;;;;;;;;;;5094565;28;20415;-49
2021/08/04 01:02:24;;;;;;;5.95;4.80;;;;;;;;;;5094749;28;20761;-50
2021/08/04 01:04:58;;;;;;;5.63;5.13;;;;;;;;;;5076306;28;20077;-49
2021/08/04 01:07:54;;;;;;;6.65;5.35;;;;;;;;;;5093920;28;20028;-48
2021/08/04 01:10:19;;;;;;;;;;;;;;;;;;5073420;28;20501;-46
2021/08/04 01:12:57;;;;;;;5.43;4.35;;;;;;;;;;5094175;28;19939;-45
2021/08/04 01:15:23;;;;;;;4.90;4.40;;;;;;;;;;5093998;28;20024;-47
2021/08/04 01:17:50;;;;;;;5.82;5.18;;;;;;;;;;5093681;28;20070;-46
2021/08/04 01:20:21;;;;;;;5.07;4.57;;;;;;;;;;5075976;28;20024;-46
2021/08/04 01:22:50;;;;;;;5.05;4.55;;;;;;;;;;5094118;28;20089;-45
2021/08/04 01:25:17;;;;;;;4.68;4.28;;;;;;;;;;5075876;28;20356;-46
2021/08/04 01:27:44;;;;;;;7.50;4.65;;;;;;;;;;5093798;28;20031;-45
2021/08/04 01:30:11;;;;;;;5.60;4.03;;;;;;;;;;5075922;28;20091;-46
2021/08/04 01:32:37;;;;;;;6.60;4.60;;;;;;;;;;5093529;28;20024;-45
2021/08/04 01:35:03;;;;;;;5.03;4.53;;;;;;;;;;5093753;28;20028;-47
2021/08/04 01:37:29;;;;;;;6.55;5.15;;;;;;;;;;5093561;28;20027;-48
2021/08/04 01:39:55;;;;;;;6.03;5.43;;;;;;;;;;5093911;28;20074;-47
2021/08/04 01:42:21;;;;;;;5.72;4.68;;;;;;;;;;5093653;28;20024;-47
2021/08/04 01:44:47;;;;;;;6.28;5.13;;;;;;;;;;5075611;28;20016;-47
2021/08/04 01:47:13;;;;;;;9.98;6.10;;;;;;;;;;5093489;28;20031;-49
2021/08/04 01:49:40;;;;;;;7.47;5.40;;;;;;;;;;5093429;28;20028;-46
2021/08/04 01:52:06;;;;;;;6.07;4.93;;;;;;;;;;5058693;28;20024;-46
2021/08/04 01:54:32;;;;;;;6.43;5.03;;;;;;;;;;5093272;28;20024;-46
2021/08/04 01:56:58;;;;;;;5.82;5.13;;;;;;;;;;5093166;28;20031;-48
2021/08/04 01:59:24;;;;;;;5.32;4.82;;;;;;;;;;5093267;28;20046;-47
2021/08/04 02:01:50;;;;;;;6.32;5.50;;;;;;;;;;5093182;28;20020;-51
2021/08/04 02:04:16;;;;;;;5.65;5.15;;;;;;;;;;5093011;28;20062;-47
2021/08/04 02:06:55;;;;;;;6.07;4.93;;;;;;;;;;5093091;28;20467;-46
2021/08/04 02:09:23;;;;;;;7.88;5.82;;;;;;;;;;5093033;28;20020;-50
2021/08/04 02:11:49;;;;;;;5.80;4.95;;;;;;;;;;5075075;28;20031;-47
2021/08/04 02:14:15;;;;;;;6.20;4.43;;;;;;;;;;5093041;28;20024;-48
2021/08/04 02:17:04;;;;;;;6.55;4.60;;;;;;;;;;5092338;28;20120;-46
2021/08/04 02:19:32;;;;;;;12.60;9.73;;;;;;;;;;5079609;28;20043;-46
2021/08/04 02:22:06;;;;;;;6.70;6.00;;;;;;;;;;5074878;28;20070;-45
2021/08/04 02:24:32;;;;;;;7.47;5.80;;;;;;;;;;5092669;28;20027;-46
2021/08/04 02:26:59;;;;;;;6.30;5.70;;;;;;;;;;5092565;28;20027;-49
2021/08/04 02:29:25;;;;;;;6.40;5.32;;;;;;;;;;5074752;28;20038;-49
2021/08/04 02:31:51;;;;;;;5.85;5.20;;;;;;;;;;5074726;28;20451;-47
2021/08/04 02:34:19;;;;;;;7.38;5.03;;;;;;;;;;5074396;28;20020;-45
2021/08/04 02:36:45;;;;;;;6.18;5.00;;;;;;;;;;5074542;28;20471;-45
2021/08/04 02:39:11;;;;;;;6.50;4.95;;;;;;;;;;5074426;28;20035;-47
2021/08/04 02:41:37;;;;;;;6.05;5.45;;;;;;;;;;5092336;28;20020;-47
2021/08/04 02:44:03;;;;;;;6.65;4.80;;;;;;;;;;5092362;28;20028;-46
2021/08/04 02:46:29;;;;;;;8.10;5.18;;;;;;;;;;5074350;28;20078;-46
2021/08/04 02:48:56;;;;;;;5.00;4.50;;;;;;;;;;5074367;28;20028;-47
2021/08/04 02:51:25;;;;;;;7.28;4.78;;;;;;;;;;5074261;28;20071;-47
2021/08/04 02:53:55;;;;;;;10.70;5.55;;;;;;;;;;5092129;28;20493;-47
2021/08/04 02:56:21;;;;;;;6.07;4.90;;;;;;;;;;5092174;28;20433;-47
2021/08/04 02:58:47;;;;;;;20.00;6.03;;;;;;;;;;5092096;28;20051;-46
2021/08/04 03:01:13;;;;;;;6.35;4.95;;;;;;;;;;5092122;28;20471;-47
2021/08/04 03:03:39;;;;;;;14.32;5.28;;;;;;;;;;5090978;28;20099;-45
2021/08/04 03:06:05;;;;;;;10.32;4.93;;;;;;;;;;5083070;28;20099;-47
2021/08/04 03:08:31;;;;;;;6.10;5.50;;;;;;;;;;5091940;28;20524;-47
2021/08/04 03:10:57;;;;;;;7.18;4.90;;;;;;;;;;5092115;28;20073;-49
2021/08/04 03:13:23;;;;;;;6.72;5.10;;;;;;;;;;5092101;28;20027;-46
2021/08/04 03:15:49;;;;;;;10.15;5.65;;;;;;;;;;5092035;28;20032;-45
2021/08/04 03:18:15;;;;;;;8.65;5.90;;;;;;;;;;5091780;28;20024;-47
2021/08/04 03:20:41;;;;;;;7.38;5.63;;;;;;;;;;5091936;28;20105;-48
2021/08/04 03:23:07;;;;;;;7.03;5.15;;;;;;;;;;5091299;28;20028;-47
2021/08/04 03:25:33;;;;;;;8.10;5.70;;;;;;;;;;5073490;28;20024;-48
2021/08/04 03:27:59;;;;;;;9.90;6.53;;;;;;;;;;5091661;28;20039;-48
2021/08/04 03:30:25;;;;;;;6.53;5.32;;;;;;;;;;5073461;28;20039;-47
2021/08/04 03:32:52;;;;;;;10.10;5.72;;;;;;;;;;5091685;28;20024;-46
2021/08/04 03:35:18;;;;;;;7.75;6.47;;;;;;;;;;5073622;28;20470;-49
2021/08/04 03:37:44;;;;;;;13.40;6.97;;;;;;;;;;5091493;28;20111;-47
2021/08/04 03:40:10;;;;;;;8.07;5.93;;;;;;;;;;5091570;28;20548;-49
2021/08/04 03:42:36;;;;;;;6.95;6.03;;;;;;;;;;5091645;28;20024;-50
2021/08/04 03:45:02;;;;;;;9.52;6.07;;;;;;;;;;5091526;28;20020;-51
2021/08/04 03:47:28;;;;;;;10.98;6.55;;;;;;;;;;5091559;28;20028;-46
2021/08/04 03:49:54;;;;;;;7.82;6.78;;;;;;;;;;5091526;28;20372;-47
2021/08/04 03:52:20;;;;;;;11.98;7.18;;;;;;;;;;5091432;28;20081;-45
2021/08/04 03:54:46;;;;;;;9.18;7.43;;;;;;;;;;5091308;28;20020;-45
2021/08/04 03:57:12;;;;;;;8.75;6.60;;;;;;;;;;5091408;28;20493;-46
2021/08/04 03:59:38;;;;;;;9.75;7.40;;;;;;;;;;5091423;28;20103;-50
2021/08/04 04:02:04;;;;;;;9.40;6.13;;;;;;;;;;5090548;28;20088;-50
2021/08/04 04:04:30;;;;;;;12.30;7.78;;;;;;;;;;5091295;28;20029;-47
2021/08/04 04:06:57;;;;;;;7.07;6.22;;;;;;;;;;5091239;28;20383;-46
2021/08/04 04:09:23;;;;;;;9.55;6.70;;;;;;;;;;5091504;28;20027;-48
2021/08/04 04:11:49;;;;;;;7.90;6.55;;;;;;;;;;5091395;28;20020;-50
2021/08/04 04:14:15;;;;;;;10.07;6.55;;;;;;;;;;5091251;28;20052;-45
2021/08/04 04:16:41;;;;;;;10.02;7.07;;;;;;;;;;5091040;28;20043;-48
2021/08/04 04:19:08;;;;;;;7.57;6.68;;;;;;;;;;5091219;28;20077;-47
2021/08/04 04:21:34;;;;;;;9.35;7.07;;;;;;;;;;5091254;28;20020;-48
2021/08/04 04:24:00;;;;;;;8.40;6.95;;;;;;;;;;5091007;28;20111;-48
2021/08/04 04:26:26;;;;;;;10.85;7.38;;;;;;;;;;5091185;28;20047;-46
2021/08/04 04:28:52;;;;;;;15.13;7.53;;;;;;;;;;5091057;28;20028;-48
2021/08/04 04:31:18;;;;;;;8.90;7.30;;;;;;;;;;5091120;28;20024;-51
2021/08/04 04:33:44;;;;;;;7.32;5.38;;;;;;;;;;5091121;28;20475;-48
2021/08/04 04:36:10;;;;;;;5.70;4.93;;;;;;;;;;5090884;28;20115;-46
2021/08/04 04:38:36;;;;;;;11.57;4.72;;;;;;;;;;5090996;28;20020;-48
2021/08/04 04:41:02;;;;;;;5.25;4.75;;;;;;;;;;5092180;28;20494;-49
2021/08/04 04:43:28;;;;;;;4.50;4.10;;;;;;;;;;5094535;28;20021;-48
2021/08/04 04:45:54;;;;;;;4.80;4.15;;;;;;;;;;5094447;28;20028;-49
2021/08/04 04:48:20;;;;;;;5.10;4.15;;;;;;;;;;5094573;28;20039;-49
2021/08/04 04:50:46;;;;;;;4.97;4.15;;;;;;;;;;5093656;28;20085;-47
2021/08/04 04:53:12;;;;;;;5.85;4.57;;;;;;;;;;5076262;28;20017;-45
2021/08/04 04:55:38;;;;;;;4.53;4.13;;;;;;;;;;5076633;28;20091;-48
2021/08/04 04:58:04;;;;;;;6.75;4.68;;;;;;;;;;5094197;28;20031;-46
2021/08/04 05:00:30;;;;;;;6.30;5.60;;;;;;;;;;5094450;28;20465;-47
2021/08/04 05:02:56;;;;;;;4.80;4.35;;;;;;;;;;5092391;28;20024;-45
2021/08/04 05:05:22;;;;;;;5.07;4.57;;;;;;;;;;5093817;28;20028;-46
2021/08/04 05:07:48;;;;;;;5.30;4.18;;;;;;;;;;5093956;28;20024;-46
2021/08/04 05:10:14;;;;;;;5.75;4.10;;;;;;;;;;5076217;28;20043;-46
2021/08/04 05:12:40;;;;;;;5.70;3.60;;;;;;;;;;5092849;28;20036;-45
2021/08/04 05:15:06;;;;;;;3.70;3.40;;;;;;;;;;5056375;28;20016;-45
2021/08/04 05:17:32;;;;;;;4.28;3.88;;;;;;;;;;5063485;28;20130;-46
2021/08/04 05:19:58;;;;;;;4.13;3.72;;;;;;;;;;5081831;28;20012;-51
2021/08/04 05:22:24;;;;;;;4.38;3.50;;;;;;;;;;5084487;28;20027;-47
2021/08/04 05:24:50;;;;;;;4.95;3.90;;;;;;;;;;5084354;28;20032;-46
2021/08/04 05:27:16;;;;;;;5.55;4.45;;;;;;;;;;5083930;28;20025;-49
2021/08/04 05:29:42;;;;;;;4.82;3.83;;;;;;;;;;5045426;28;20020;-47
2021/08/04 05:32:08;;;;;;;3.50;3.25;;;;;;;;;;5075212;28;20068;-47
2021/08/04 05:34:34;;;;;;;3.83;3.53;;;;;;;;;;5093022;28;20523;-46
2021/08/04 05:37:00;;;;;;;4.43;4.03;;;;;;;;;;5088409;28;20028;-49
2021/08/04 05:39:26;;;;;;;3.53;3.22;;;;;;;;;;5085677;28;20012;-49
2021/08/04 05:41:52;;;;;;;4.85;3.70;;;;;;;;;;5061490;28;20023;-49
2021/08/04 05:44:18;;;;;;;4.25;3.85;;;;;;;;;;5083443;28;20091;-47
2021/08/04 05:46:44;;;;;;;4.30;3.72;;;;;;;;;;5081284;28;20027;-49
2021/08/04 05:49:10;;;;;;;4.07;3.47;;;;;;;;;;5080937;28;20024;-47
2021/08/04 05:51:36;;;;;;;5.25;4.18;;;;;;;;;;5082182;28;20024;-49
2021/08/04 05:54:02;;;;;;;4.28;3.88;;;;;;;;;;5080360;28;20031;-51
2021/08/04 05:56:29;;;;;;;4.70;4.10;;;;;;;;;;5076109;28;20849;-47
2021/08/04 05:58:54;;;;;;;4.18;3.78;;;;;;;;;;5075145;28;20024;-47
2021/08/04 06:01:20;;;;;;;4.55;4.03;;;;;;;;;;5073842;28;20032;-46
2021/08/04 06:03:46;;;;;;;5.00;3.63;;;;;;;;;;5065289;28;20025;-46
2021/08/04 06:06:13;;;;;;;3.85;3.50;;;;;;;;;;5082354;28;20682;-50
2021/08/04 06:08:39;;;;;;;3.78;3.47;;;;;;;;;;5083073;28;20100;-47
2021/08/04 06:11:05;;;;;;;4.28;3.40;;;;;;;;;;5082980;28;20103;-48
2021/08/04 06:13:31;;;;;;;3.28;2.97;;;;;;;;;;5064607;28;20447;-47
2021/08/04 06:15:57;;;;;;;3.20;3.00;;;;;;;;;;5067242;28;20035;-46
2021/08/04 06:18:23;;;;;;;3.38;3.10;;;;;;;;;;5084726;28;20422;-50
2021/08/04 06:20:49;;;;;;;3.45;3.25;;;;;;;;;;5063853;28;20176;-48
2021/08/04 06:23:15;;;;;;;5.00;3.10;;;;;;;;;;5080211;28;20422;-48
2021/08/04 06:25:41;;;;;;;3.75;3.13;;;;;;;;;;5082090;28;20019;-48
2021/08/04 06:28:07;;;;;;;3.63;3.25;;;;;;;;;;5081118;28;20035;-53
2021/08/04 06:30:33;;;;;;;3.97;3.00;;;;;;;;;;5084219;28;20032;-49
2021/08/04 06:32:59;;;;;;;2.85;2.65;;;;;;;;;;5065296;28;20039;-47
2021/08/04 06:35:25;;;;;;;3.35;2.92;;;;;;;;;;5061267;28;20020;-47
2021/08/04 06:37:52;;;;;;;3.40;2.90;;;;;;;;;;5082899;28;20016;-46
2021/08/04 06:40:18;;;;;;;3.03;2.83;;;;;;;;;;5086698;28;20081;-48
2021/08/04 06:42:44;;;;;;;2.92;2.72;;;;;;;;;;5083191;28;20538;-47
2021/08/04 06:45:10;;;;;;;3.90;3.25;;;;;;;;;;5081275;28;20017;-47
2021/08/04 06:47:36;;;;;;;4.97;3.33;;;;;;;;;;5086333;28;20071;-48
2021/08/04 06:50:02;;;;;;;3.55;2.83;;;;;;;;;;5074329;28;20451;-47
2021/08/04 06:52:28;;;;;;;3.88;2.88;;;;;;;;;;5089356;28;20758;-49
2021/08/04 06:54:54;;;;;;;2.88;2.67;;;;;;;;;;5087677;28;20026;-47
2021/08/04 06:57:20;;;;;;;3.33;3.03;;;;;;;;;;5080188;28;20032;-48
2021/08/04 06:59:46;;;;;;;3.00;2.80;;;;;;;;;;5080929;28;20522;-46
2021/08/04 07:02:12;;;;;;;2.63;2.30;;;;;;;;;;5079448;28;20040;-50
2021/08/04 07:04:38;;;;;;;2.63;2.42;;;;;;;;;;5079743;28;20031;-47
2021/08/04 07:07:04;;;;;;;3.00;2.80;;;;;;;;;;5080255;28;20016;-46
2021/08/04 07:09:34;;;;;;;2.70;2.50;;;;;;;;;;5078166;28;20044;-47
2021/08/04 07:12:00;;;;;;;5.25;2.50;;;;;;;;;;5061290;28;20370;-47
2021/08/04 07:14:26;;;;;;;2.60;2.40;;;;;;;;;;5080815;28;20024;-50
2021/08/04 07:16:52;;;;;;;2.47;2.28;;;;;;;;;;5078376;28;20040;-48
2021/08/04 07:19:18;;;;;;;2.75;2.55;;;;;;;;;;5079184;28;20032;-51
2021/08/04 07:21:44;;;;;;;2.60;2.40;;;;;;;;;;5081043;28;20021;-47
2021/08/04 07:24:10;;;;;;;2.65;2.50;;;;;;;;;;5079239;28;20028;-49
2021/08/04 07:26:37;;;;;;;2.70;2.38;;;;;;;;;;5080733;28;20028;-47
2021/08/04 07:29:03;;;;;;;2.47;2.28;;;;;;;;;;5046316;28;20017;-49
2021/08/04 07:31:29;;;;;;;2.70;2.35;;;;;;;;;;5061256;28;20795;-47
2021/08/04 07:33:55;;;;;;;2.58;2.30;;;;;;;;;;5080718;28;20031;-48
2021/08/04 07:36:21;;;;;;;2.63;2.42;;;;;;;;;;5080453;28;20021;-50
2021/08/04 07:38:47;;;;;;;2.47;2.28;;;;;;;;;;5078916;28;20021;-47
2021/08/04 07:41:13;;;;;;;2.50;2.30;;;;;;;;;;5080992;28;20050;-46
2021/08/04 07:43:39;;;;;;;2.72;2.50;;;;;;;;;;5080086;28;20020;-49
2021/08/04 07:46:05;;;;;;;2.45;2.25;;;;;;;;;;5079055;28;20101;-48
2021/08/04 07:48:33;;;;;;;2.85;2.63;;;;;;;;;;5081303;28;20024;-49
2021/08/04 07:51:01;;;;;;;2.28;2.10;;;;;;;;;;5079998;28;20016;-49
2021/08/04 07:53:27;;;;;;;2.20;2.10;;;;;;;;;;5044641;28;20407;-49
2021/08/04 07:55:53;;;;;;;2.60;2.40;;;;;;;;;;5079078;28;20518;-50
2021/08/04 07:58:19;;;;;;;2.20;2.10;;;;;;;;;;5080089;28;20024;-51
2021/08/04 08:00:45;;;;;;;2.03;1.95;;;;;;;;;;5062734;28;20025;-47
2021/08/04 08:03:11;;;;;;;2.33;2.20;;;;;;;;;;5061015;28;20049;-49
2021/08/04 08:05:37;;;;;;;2.67;2.00;;;;;;;;;;5080362;28;20024;-46
2021/08/04 08:08:04;;;;;;;1.90;1.80;;;;;;;;;;5062643;28;20029;-47
2021/08/04 08:10:36;;;;;;;1.90;1.80;;;;;;;;;;5061601;28;20024;-47
2021/08/04 08:13:02;;;;;;;1.80;1.70;;;;;;;;;;5079406;28;20060;-48
2021/08/04 08:15:28;;;;;;;1.77;1.67;;;;;;;;;;5081320;28;20106;-50
2021/08/04 08:17:54;;;;;;;3.90;2.17;;;;;;;;;;5064804;28;20040;-47
2021/08/04 08:20:20;;;;;;;1.80;1.70;;;;;;;;;;5083696;28;20058;-50
2021/08/04 08:22:49;;;;;;;1.75;1.65;;;;;;;;;;5084657;28;20805;-50
2021/08/04 08:25:15;;;;;;;1.80;1.70;;;;;;;;;;5082883;28;20025;-50
2021/08/04 08:27:42;;;;;;;2.45;1.60;;;;;;;;;;5083179;28;20032;-47
2021/08/04 08:30:08;;;;;;;2.25;2.05;;;;;;;;;;5084465;28;20481;-48
2021/08/04 08:32:34;;;;;;;1.65;1.55;;;;;;;;;;5082820;28;20021;-47
2021/08/04 08:35:00;;;;;;;2.10;1.90;;;;;;;;;;5065097;28;20032;-47
2021/08/04 08:37:26;;;;;;;2.60;2.40;;;;;;;;;;5084084;28;20122;-50
2021/08/04 08:39:53;;;;;;;3.15;2.00;;;;;;;;;;5082188;28;20540;-51
2021/08/04 08:42:19;;;;;;;2.10;2.00;;;;;;;;;;5065330;28;20023;-50
2021/08/04 08:44:45;;;;;;;2.20;2.00;;;;;;;;;;5083855;28;20030;-48
2021/08/04 08:47:11;;;;;;;2.05;1.95;;;;;;;;;;5085351;28;20055;-48
2021/08/04 08:49:37;;;;;;;1.75;1.65;;;;;;;;;;5075835;28;20052;-49
2021/08/04 08:52:04;;;;;;;1.58;1.58;;;;;;;;;;5082304;28;20372;-50
2021/08/04 08:54:30;;;;;;;1.65;1.60;;;;;;;;;;5082982;28;20234;-46
2021/08/04 08:56:56;;;;;;;1.63;1.58;;;;;;;;;;5083855;28;20105;-47
2021/08/04 08:59:22;;;;;;;3.65;1.83;;;;;;;;;;5081874;28;20028;-47
2021/08/04 09:01:48;;;;;;;1.50;1.50;;;;;;;;;;5082990;28;20043;-46
2021/08/04 09:04:17;;;;;;;1.98;1.88;;;;;;;;;;5065439;28;20019;-47
2021/08/04 09:06:44;;;;;;;1.98;1.88;;;;;;;;;;5081807;28;20012;-50
2021/08/04 09:09:18;;;;;;;3.05;1.90;;;;;;;;;;5082848;28;20482;-49
2021/08/04 09:11:45;;;;;;;2.33;1.58;;;;;;;;;;5082210;28;20189;-49
2021/08/04 09:14:11;;;;;;;2.03;1.50;;;;;;;;;;5064261;28;20031;-46
2021/08/04 09:16:39;;;;;;;4.40;2.03;;;;;;;;;;5083332;28;20056;-47
2021/08/04 09:19:05;;;;;;;1.80;1.70;;;;;;;;;;5081864;28;20024;-48
2021/08/04 09:21:31;;;;;;;1.60;1.50;;;;;;;;;;5064175;28;20097;-51
2021/08/04 09:23:57;;;;;;;1.75;1.65;;;;;;;;;;5083380;28;20184;-47
2021/08/04 09:26:24;;;;;;;1.83;1.73;;;;;;;;;;5081015;28;20028;-49
2021/08/04 09:28:56;;;;;;;1.95;1.85;;;;;;;;;;5082393;28;20031;-46
2021/08/04 09:31:23;;;;;;;1.58;1.48;;;;;;;;;;5083590;28;20165;-52
2021/08/04 09:33:49;;;;;;;2.35;2.15;;;;;;;;;;5064423;28;20020;-47
2021/08/04 09:36:28;;;;;;;1.90;1.80;;;;;;;;;;5081447;28;20028;-49
2021/08/04 09:39:03;;;;;;;1.70;1.60;;;;;;;;;;5065064;28;20371;-47
2021/08/04 09:41:29;;;;;;;2.05;1.83;;;;;;;;;;5082051;28;20012;-48
2021/08/04 09:44:03;;;;;;;2.05;1.80;;;;;;;;;;5064748;28;20087;-49
2021/08/04 09:46:29;;;;;;;2.20;1.90;;;;;;;;;;5086274;28;20039;-47
2021/08/04 09:48:54;;;;;;;2.03;1.80;;;;;;;;;;5082494;28;20720;-50
2021/08/04 09:51:22;;;;;;;1.95;1.85;;;;;;;;;;5063036;28;20036;-48
2021/08/04 09:53:49;;;;;;;3.35;2.13;;;;;;;;;;5082243;28;20032;-49
2021/08/04 09:56:18;;;;;;;1.98;1.88;;;;;;;;;;5075423;28;20028;-51
2021/08/04 09:58:45;;;;;;;2.47;1.65;;;;;;;;;;5072816;28;20028;-48
2021/08/04 10:01:13;;;;;;;1.85;1.75;;;;;;;;;;5071973;28;20021;-50
2021/08/04 10:03:40;;;;;;;1.60;1.50;;;;;;;;;;5071630;28;20446;-47
2021/08/04 10:06:06;;;;;;;1.63;1.60;;;;;;;;;;5053748;28;20029;-49
2021/08/04 10:08:32;;;;;;;2.40;2.30;;;;;;;;;;5072467;28;20029;-47
2021/08/04 10:10:58;;;;;;;2.00;1.80;;;;;;;;;;5072456;28;20352;-47
2021/08/04 10:13:32;;;;;;;1.70;1.60;;;;;;;;;;5072439;28;20035;-50
2021/08/04 10:15:59;;;;;;;1.80;1.70;;;;;;;;;;5071622;28;22158;-49
2021/08/04 10:18:30;;;;;;;1.60;1.50;;;;;;;;;;5072198;28;20395;-48
2021/08/04 10:21:04;;;;;;;1.48;1.40;;;;;;;;;;5072302;28;20020;-48
2021/08/04 10:23:30;;;;;;;1.70;1.60;;;;;;;;;;5072283;28;20465;-46
2021/08/04 10:25:56;;;;;;;1.95;1.85;;;;;;;;;;5072226;28;20032;-49
2021/08/04 10:28:23;;;;;;;2.28;1.77;;;;;;;;;;5072023;28;20146;-47
2021/08/04 10:30:49;;;;;;;1.70;1.60;;;;;;;;;;5072220;28;20106;-47
2021/08/04 10:33:15;;;;;;;1.50;1.40;;;;;;;;;;5054291;28;20024;-47
2021/08/04 10:35:42;;;;;;;1.83;1.73;;;;;;;;;;5072065;28;20066;-47
2021/08/04 10:38:13;;;;;;;1.77;1.67;;;;;;;;;;5071290;28;20107;-48
2021/08/04 10:40:39;;;;;;;1.80;1.70;;;;;;;;;;5054633;28;20027;-49
2021/08/04 10:43:05;;;;;;;1.77;1.67;;;;;;;;;;5071894;28;20421;-47
2021/08/04 10:45:31;;;;;;;2.25;2.00;;;;;;;;;;5071866;28;20032;-51
2021/08/04 10:48:18;;;;;;;1.90;1.60;;;;;;;;;;5072095;28;20494;-49
2021/08/04 10:51:03;;;;;;;1.73;1.63;;;;;;;;;;5053820;28;20394;-49
2021/08/04 10:53:29;;;;;;;1.77;1.67;;;;;;;;;;5053813;28;20063;-47
2021/08/04 10:55:55;;;;;;;1.95;1.85;;;;;;;;;;5071750;28;20024;-49
2021/08/04 10:58:21;;;;;;;1.60;1.50;;;;;;;;;;5071626;28;20167;-50
2021/08/04 11:00:47;;;;;;;1.70;1.60;;;;;;;;;;5071668;28;20020;-50
2021/08/04 11:03:33;;;;;;;2.13;1.67;;;;;;;;;;5071624;28;20025;-50
2021/08/04 11:06:02;;;;;;;1.80;1.70;;;;;;;;;;5078371;28;20031;-50
2021/08/04 11:08:28;;;;;;;1.85;1.60;;;;;;;;;;5091812;28;20055;-50
2021/08/04 11:10:54;;;;;;;1.95;1.65;;;;;;;;;;5091908;28;20056;-51
2021/08/04 11:13:40;;;;;;;1.27;1.27;;;;;;;;;;5057261;28;20058;-47
2021/08/04 11:16:25;;;;;;;1.60;1.50;;;;;;;;;;5091659;28;20395;-46
2021/08/04 11:19:00;;;;;;;2.00;1.90;;;;;;;;;;5091647;28;20060;-50
2021/08/04 11:21:26;;;;;;;1.80;1.70;;;;;;;;;;5073660;28;20031;-50
2021/08/04 11:23:52;;;;;;;1.80;1.70;;;;;;;;;;5091805;28;20383;-50
2021/08/04 11:26:28;;;;;;;1.55;1.45;;;;;;;;;;5091653;28;20028;-47
2021/08/04 11:28:54;;;;;;;1.63;1.52;;;;;;;;;;5091897;28;20036;-49
2021/08/04 11:31:21;;;;;;;1.58;1.48;;;;;;;;;;5091649;28;20459;-49
2021/08/04 11:33:47;;;;;;;2.53;2.00;;;;;;;;;;5091661;28;20107;-50
2021/08/04 11:36:13;;;;;;;2.00;1.88;;;;;;;;;;5091512;28;20052;-50
2021/08/04 11:38:40;;;;;;;1.90;1.80;;;;;;;;;;5091637;28;20028;-49
2021/08/04 11:41:18;;;;;;;1.98;1.85;;;;;;;;;;5073059;28;20020;-51
2021/08/04 11:43:45;;;;;;;1.80;1.70;;;;;;;;;;5091559;28;20028;-50
2021/08/04 11:46:27;;;;;;;1.80;1.70;;;;;;;;;;5091667;28;20024;-49
2021/08/04 11:48:53;;;;;;;1.73;1.63;;;;;;;;;;5091392;28;20024;-51
2021/08/04 11:51:36;;;;;;;7.32;1.80;;;;;;;;;;5094937;28;20034;-49
2021/08/04 11:54:02;;;;;;;1.80;1.70;;;;;;;;;;5095599;28;20024;-48
2021/08/04 11:56:28;;;;;;;2.28;2.08;;;;;;;;;;5094477;28;20032;-48
2021/08/04 11:58:59;;;;;;;1.90;1.80;;;;;;;;;;5095385;28;20108;-51
2021/08/04 12:01:25;;;;;;;2.38;1.52;;;;;;;;;;5095277;28;20025;-51
2021/08/04 12:04:02;;;;;;;1.80;1.70;;;;;;;;;;5095358;28;20028;-48
2021/08/04 12:06:28;;;;;;;1.48;1.48;;;;;;;;;;5095502;28;20016;-48
2021/08/04 12:08:54;;;;;;;1.55;1.35;;;;;;;;;;5095350;28;20475;-50
2021/08/04 12:11:20;;;;;;;2.08;1.98;;;;;;;;;;5095455;28;20032;-47
2021/08/04 12:14:04;;;;;;;1.83;1.70;;;;;;;;;;5095373;28;20094;-50
2021/08/04 12:16:30;;;;;;;1.70;1.60;;;;;;;;;;5094941;28;20122;-50
2021/08/04 12:18:56;;;;;;;1.65;1.55;;;;;;;;;;5094986;28;20032;-48
2021/08/04 12:21:22;;;;;;;1.75;1.65;;;;;;;;;;5094902;28;20055;-47
2021/08/04 12:23:57;;;;;;;1.70;1.60;;;;;;;;;;5094838;28;20478;-48
2021/08/04 12:26:23;;;;;;;1.75;1.52;;;;;;;;;;5095153;28;20079;-50
2021/08/04 12:28:49;;;;;;;2.72;1.63;;;;;;;;;;5095076;28;20094;-51
2021/08/04 12:31:15;;;;;;;1.70;1.60;;;;;;;;;;5094883;28;20111;-52
2021/08/04 12:33:56;;;;;;;1.35;1.35;;;;;;;;;;5094921;28;20024;-48
2021/08/04 12:36:33;;;;;;;1.80;1.70;;;;;;;;;;5094771;28;20031;-48
2021/08/04 12:38:59;;;;;;;3.67;1.80;;;;;;;;;;5078465;28;20100;-51
2021/08/04 12:41:26;;;;;;;4.63;1.95;;;;;;;;;;5094891;28;20803;-47
2021/08/04 12:43:55;;;;;;;4.28;1.88;;;;;;;;;;5095018;28;20024;-48
2021/08/04 12:46:28;;;;;;;2.00;1.90;;;;;;;;;;5094512;28;20024;-49
2021/08/04 12:48:54;;;;;;;2.20;2.00;;;;;;;;;;5094660;28;20028;-47
2021/08/04 12:51:23;;;;;;;2.00;1.90;;;;;;;;;;5094515;28;20028;-49
2021/08/04 12:53:59;;;;;;;1.83;1.73;;;;;;;;;;5094463;28;20364;-50
2021/08/04 12:56:39;;;;;;;1.70;1.60;;;;;;;;;;5094248;28;20030;-48
2021/08/04 12:59:09;;;;;;;1.67;1.58;;;;;;;;;;5094289;28;20020;-47
2021/08/04 13:01:44;;;;;;;2.75;1.73;;;;;;;;;;5075852;28;20020;-50
2021/08/04 13:04:29;;;;;;;1.90;1.80;;;;;;;;;;5094392;28;20036;-49
2021/08/04 13:06:56;;;;;;;1.75;1.65;;;;;;;;;;5094321;28;20158;-51
2021/08/04 13:09:25;;;;;;;1.60;1.50;;;;;;;;;;5094089;28;20024;-47
2021/08/04 13:11:52;;;;;;;1.48;1.48;;;;;;;;;;5094120;28;20426;-48
2021/08/04 13:14:19;;;;;;;1.70;1.60;;;;;;;;;;5094115;28;20020;-52
2021/08/04 13:16:45;;;;;;;1.92;1.80;;;;;;;;;;5075791;28;20052;-51
2021/08/04 13:19:24;;;;;;;1.65;1.55;;;;;;;;;;5093863;28;20040;-48
2021/08/04 13:22:06;;;;;;;1.83;1.73;;;;;;;;;;5093990;28;20472;-47
2021/08/04 13:24:35;;;;;;;1.70;1.70;;;;;;;;;;5075730;28;20036;-47
2021/08/04 13:27:02;;;;;;;1.90;1.80;;;;;;;;;;5093929;28;20021;-50
2021/08/04 13:29:29;;;;;;;2.20;2.05;;;;;;;;;;5093849;28;20119;-51
2021/08/04 13:31:56;;;;;;;2.03;1.92;;;;;;;;;;5093611;28;20034;-48
2021/08/04 13:34:22;;;;;;;1.60;1.60;;;;;;;;;;5075863;28;20558;-49
2021/08/04 13:36:48;;;;;;;1.90;1.80;;;;;;;;;;5093839;28;20024;-48
2021/08/04 13:39:14;;;;;;;3.10;1.60;;;;;;;;;;5075349;28;20073;-48
2021/08/04 13:41:40;;;;;;;4.55;1.85;;;;;;;;;;5093631;28;20433;-53
2021/08/04 13:44:06;;;;;;;2.15;1.88;;;;;;;;;;5093384;28;20078;-48
2021/08/04 13:46:32;;;;;;;2.85;2.65;;;;;;;;;;5093534;28;20020;-51
2021/08/04 13:48:58;;;;;;;3.22;2.92;;;;;;;;;;5093154;28;20719;-52
2021/08/04 13:51:27;;;;;;;2.45;2.25;;;;;;;;;;5075280;28;20052;-50
2021/08/04 13:53:53;;;;;;;2.17;2.00;;;;;;;;;;5093427;28;20046;-48
2021/08/04 13:56:19;;;;;;;1.83;1.73;;;;;;;;;;5093596;28;20783;-51
2021/08/04 13:58:45;;;;;;;2.10;2.00;;;;;;;;;;5093117;28;20024;-48
2021/08/04 14:01:11;;;;;;;3.10;2.20;;;;;;;;;;5093136;28;20028;-51
2021/08/04 14:03:37;;;;;;;2.97;2.25;;;;;;;;;;5092970;28;20471;-47
2021/08/04 14:06:03;;;;;;;2.78;2.20;;;;;;;;;;5093001;28;20023;-49
2021/08/04 14:08:29;;;;;;;2.30;2.20;;;;;;;;;;5074825;28;20536;-49
2021/08/04 14:10:55;;;;;;;2.63;2.13;;;;;;;;;;5092840;28;20403;-50
2021/08/04 14:13:21;;;;;;;3.05;2.03;;;;;;;;;;5092720;28;20028;-49
2021/08/04 14:15:47;;;;;;;2.35;1.83;;;;;;;;;;5092604;28;20024;-47
2021/08/04 14:18:13;;;;;;;1.98;1.88;;;;;;;;;;5092603;28;20040;-48
2021/08/04 14:20:40;;;;;;;4.38;2.28;;;;;;;;;;5092696;28;20028;-48
2021/08/04 14:23:09;;;;;;;2.03;1.90;;;;;;;;;;5092769;28;20020;-50
2021/08/04 14:25:36;;;;;;;2.15;1.98;;;;;;;;;;5092600;28;20047;-48
2021/08/04 14:28:02;;;;;;;2.35;2.20;;;;;;;;;;5092480;28;20024;-52
2021/08/04 14:30:28;;;;;;;2.05;1.77;;;;;;;;;;5092777;28;20114;-48
2021/08/04 14:32:54;;;;;;;2.28;1.80;;;;;;;;;;5092491;28;20028;-49
2021/08/04 14:35:21;;;;;;;1.90;1.70;;;;;;;;;;5092379;28;20055;-47
2021/08/04 14:37:47;;;;;;;2.00;1.90;;;;;;;;;;5092329;28;20020;-48
2021/08/04 14:40:13;;;;;;;1.75;1.65;;;;;;;;;;5092389;28;20107;-47
2021/08/04 14:42:40;;;;;;;3.10;1.83;;;;;;;;;;5092397;28;20024;-47
2021/08/04 14:45:06;;;;;;;2.40;2.20;;;;;;;;;;5090953;28;20051;-47